sensor_id;sensor_type;location;lat;lon;timestamp;temperature;humidity
10304;DHT22;5197;48.152;8.590;2023-04-03T00:00:53;2.00;68.70
10304;DHT22;5197;48.152;8.590;2023-04-03T00:03:20;1.90;68.50
10304;DHT22;5197;48.152;8.590;2023-04-03T00:05:47;1.90;68.60
10304;DHT22;5197;48.152;8.590;2023-04-03T00:08:15;1.90;68.50
10304;DHT22;5197;48.152;8.590;2023-04-03T00:10:42;1.90;69.80
10304;DHT22;5197;48.152;8.590;2023-04-03T00:13:09;1.90;68.50
10304;DHT22;5197;48.152;8.590;2023-04-03T00:15:36;1.80;68.40
10304;DHT22;5197;48.152;8.590;2023-04-03T00:18:04;1.80;68.40
10304;DHT22;5197;48.152;8.590;2023-04-03T00:20:31;1.80;68.50
10304;DHT22;5197;48.152;8.590;2023-04-03T00:22:58;1.80;68.40
10304;DHT22;5197;48.152;8.590;2023-04-03T00:25:24;1.80;67.80
10304;DHT22;5197;48.152;8.590;2023-04-03T00:27:52;1.70;67.10
10304;DHT22;5197;48.152;8.590;2023-04-03T00:30:20;1.70;68.00
10304;DHT22;5197;48.152;8.590;2023-04-03T00:32:49;1.60;68.20
10304;DHT22;5197;48.152;8.590;2023-04-03T00:35:17;1.60;68.20
10304;DHT22;5197;48.152;8.590;2023-04-03T00:37:44;1.60;68.20
10304;DHT22;5197;48.152;8.590;2023-04-03T00:40:13;1.60;68.20
10304;DHT22;5197;48.152;8.590;2023-04-03T00:42:41;1.60;68.20
10304;DHT22;5197;48.152;8.590;2023-04-03T00:47:54;1.70;68.40
10304;DHT22;5197;48.152;8.590;2023-04-03T00:50:22;1.70;68.40
10304;DHT22;5197;48.152;8.590;2023-04-03T00:52:49;1.70;68.30
10304;DHT22;5197;48.152;8.590;2023-04-03T00:55:17;1.70;68.40
10304;DHT22;5197;48.152;8.590;2023-04-03T00:57:45;1.60;68.20
10304;DHT22;5197;48.152;8.590;2023-04-03T01:00:15;1.60;68.30
10304;DHT22;5197;48.152;8.590;2023-04-03T01:02:43;1.60;68.20
10304;DHT22;5197;48.152;8.590;2023-04-03T01:05:12;1.60;68.20
10304;DHT22;5197;48.152;8.590;2023-04-03T01:07:39;1.60;68.20
10304;DHT22;5197;48.152;8.590;2023-04-03T01:10:08;1.70;68.40
10304;DHT22;5197;48.152;8.590;2023-04-03T01:12:38;1.70;68.30
10304;DHT22;5197;48.152;8.590;2023-04-03T01:15:13;1.70;68.30
10304;DHT22;5197;48.152;8.590;2023-04-03T01:17:43;1.70;67.60
10304;DHT22;5197;48.152;8.590;2023-04-03T01:28:12;1.60;66.90
10304;DHT22;5197;48.152;8.590;2023-04-03T01:30:50;1.60;67.50
10304;DHT22;5197;48.152;8.590;2023-04-03T01:33:20;1.50;68.20
10304;DHT22;5197;48.152;8.590;2023-04-03T01:35:46;1.50;68.30
10304;DHT22;5197;48.152;8.590;2023-04-03T01:38:13;1.50;68.20
10304;DHT22;5197;48.152;8.590;2023-04-03T01:40:40;1.50;68.30
10304;DHT22;5197;48.152;8.590;2023-04-03T01:43:07;1.50;69.50
10304;DHT22;5197;48.152;8.590;2023-04-03T01:45:34;1.60;68.30
10304;DHT22;5197;48.152;8.590;2023-04-03T01:48:01;1.50;68.30
10304;DHT22;5197;48.152;8.590;2023-04-03T01:50:28;1.50;68.40
10304;DHT22;5197;48.152;8.590;2023-04-03T01:52:54;1.40;69.50
10304;DHT22;5197;48.152;8.590;2023-04-03T01:55:21;1.50;69.60
10304;DHT22;5197;48.152;8.590;2023-04-03T01:57:48;1.50;70.10
10304;DHT22;5197;48.152;8.590;2023-04-03T02:00:15;1.50;68.50
10304;DHT22;5197;48.152;8.590;2023-04-03T02:02:42;1.50;68.70
10304;DHT22;5197;48.152;8.590;2023-04-03T02:05:09;1.50;70.60
10304;DHT22;5197;48.152;8.590;2023-04-03T02:07:35;1.50;70.30
10304;DHT22;5197;48.152;8.590;2023-04-03T02:10:02;1.50;69.80
10304;DHT22;5197;48.152;8.590;2023-04-03T02:12:29;1.60;68.30
10304;DHT22;5197;48.152;8.590;2023-04-03T02:14:56;1.60;68.40
10304;DHT22;5197;48.152;8.590;2023-04-03T02:17:23;1.60;68.20
10304;DHT22;5197;48.152;8.590;2023-04-03T02:19:50;1.60;67.70
10304;DHT22;5197;48.152;8.590;2023-04-03T02:22:16;1.50;68.20
10304;DHT22;5197;48.152;8.590;2023-04-03T02:24:43;1.40;68.10
10304;DHT22;5197;48.152;8.590;2023-04-03T02:27:11;1.40;68.10
10304;DHT22;5197;48.152;8.590;2023-04-03T02:29:38;1.40;68.10
10304;DHT22;5197;48.152;8.590;2023-04-03T02:32:04;1.30;68.00
10304;DHT22;5197;48.152;8.590;2023-04-03T02:34:31;1.30;68.00
10304;DHT22;5197;48.152;8.590;2023-04-03T02:36:58;1.30;68.00
10304;DHT22;5197;48.152;8.590;2023-04-03T02:39:26;1.30;68.00
10304;DHT22;5197;48.152;8.590;2023-04-03T02:41:53;1.20;68.00
10304;DHT22;5197;48.152;8.590;2023-04-03T02:44:19;1.20;69.10
10304;DHT22;5197;48.152;8.590;2023-04-03T02:46:46;1.20;69.10
10304;DHT22;5197;48.152;8.590;2023-04-03T02:49:13;1.20;68.00
10304;DHT22;5197;48.152;8.590;2023-04-03T02:51:40;1.20;68.00
10304;DHT22;5197;48.152;8.590;2023-04-03T02:54:07;1.10;67.80
10304;DHT22;5197;48.152;8.590;2023-04-03T02:56:35;1.10;68.00
10304;DHT22;5197;48.152;8.590;2023-04-03T02:59:02;1.10;69.70
10304;DHT22;5197;48.152;8.590;2023-04-03T03:01:29;1.10;69.20
10304;DHT22;5197;48.152;8.590;2023-04-03T03:03:59;1.00;69.00
10304;DHT22;5197;48.152;8.590;2023-04-03T03:06:26;1.40;70.40
10304;DHT22;5197;48.152;8.590;2023-04-03T03:08:53;1.00;70.30
10304;DHT22;5197;48.152;8.590;2023-04-03T03:11:20;1.00;70.30
10304;DHT22;5197;48.152;8.590;2023-04-03T03:13:47;1.10;70.40
10304;DHT22;5197;48.152;8.590;2023-04-03T03:16:14;1.10;68.70
10304;DHT22;5197;48.152;8.590;2023-04-03T03:18:41;1.00;67.70
10304;DHT22;5197;48.152;8.590;2023-04-03T03:21:09;1.10;67.80
10304;DHT22;5197;48.152;8.590;2023-04-03T03:23:37;1.00;67.70
10304;DHT22;5197;48.152;8.590;2023-04-03T03:26:06;1.00;67.70
10304;DHT22;5197;48.152;8.590;2023-04-03T03:28:34;1.00;67.70
10304;DHT22;5197;48.152;8.590;2023-04-03T03:31:03;1.00;67.80
10304;DHT22;5197;48.152;8.590;2023-04-03T03:33:29;1.00;67.80
10304;DHT22;5197;48.152;8.590;2023-04-03T03:35:56;1.10;67.80
10304;DHT22;5197;48.152;8.590;2023-04-03T03:38:23;1.00;67.70
10304;DHT22;5197;48.152;8.590;2023-04-03T03:40:51;1.00;67.70
10304;DHT22;5197;48.152;8.590;2023-04-03T03:43:18;1.00;67.70
10304;DHT22;5197;48.152;8.590;2023-04-03T03:45:46;0.90;67.70
10304;DHT22;5197;48.152;8.590;2023-04-03T03:48:15;1.00;67.70
10304;DHT22;5197;48.152;8.590;2023-04-03T03:50:42;0.90;67.70
10304;DHT22;5197;48.152;8.590;2023-04-03T03:53:09;0.90;68.10
10304;DHT22;5197;48.152;8.590;2023-04-03T03:55:36;0.80;68.30
10304;DHT22;5197;48.152;8.590;2023-04-03T03:58:04;0.80;70.00
10304;DHT22;5197;48.152;8.590;2023-04-03T04:00:31;0.90;69.70
10304;DHT22;5197;48.152;8.590;2023-04-03T04:02:58;1.00;69.10
10304;DHT22;5197;48.152;8.590;2023-04-03T04:05:25;1.00;68.70
10304;DHT22;5197;48.152;8.590;2023-04-03T04:07:52;1.00;67.80
10304;DHT22;5197;48.152;8.590;2023-04-03T04:10:19;1.00;67.70
10304;DHT22;5197;48.152;8.590;2023-04-03T04:12:45;1.00;67.70
10304;DHT22;5197;48.152;8.590;2023-04-03T04:15:12;1.00;67.80
10304;DHT22;5197;48.152;8.590;2023-04-03T04:17:39;1.00;67.70
10304;DHT22;5197;48.152;8.590;2023-04-03T04:20:06;1.00;67.70
10304;DHT22;5197;48.152;8.590;2023-04-03T04:22:33;1.00;67.70
10304;DHT22;5197;48.152;8.590;2023-04-03T04:25:00;1.00;67.70
10304;DHT22;5197;48.152;8.590;2023-04-03T04:27:27;0.90;67.70
10304;DHT22;5197;48.152;8.590;2023-04-03T04:29:54;1.00;67.80
10304;DHT22;5197;48.152;8.590;2023-04-03T04:32:22;1.00;67.70
10304;DHT22;5197;48.152;8.590;2023-04-03T04:34:49;1.00;67.80
10304;DHT22;5197;48.152;8.590;2023-04-03T04:37:16;1.00;67.70
10304;DHT22;5197;48.152;8.590;2023-04-03T04:39:43;1.00;67.70
10304;DHT22;5197;48.152;8.590;2023-04-03T04:42:09;1.00;66.40
10304;DHT22;5197;48.152;8.590;2023-04-03T04:44:42;0.90;67.70
10304;DHT22;5197;48.152;8.590;2023-04-03T04:47:09;0.90;67.70
10304;DHT22;5197;48.152;8.590;2023-04-03T04:49:36;0.90;67.60
10304;DHT22;5197;48.152;8.590;2023-04-03T04:52:03;0.90;67.70
10304;DHT22;5197;48.152;8.590;2023-04-03T04:54:29;1.00;67.70
10304;DHT22;5197;48.152;8.590;2023-04-03T04:56:56;0.90;67.60
10304;DHT22;5197;48.152;8.590;2023-04-03T04:59:23;1.00;67.70
10304;DHT22;5197;48.152;8.590;2023-04-03T05:01:50;1.00;67.70
10304;DHT22;5197;48.152;8.590;2023-04-03T05:04:17;1.00;66.10
10304;DHT22;5197;48.152;8.590;2023-04-03T05:06:44;0.90;65.60
10304;DHT22;5197;48.152;8.590;2023-04-03T05:09:11;0.90;65.70
10304;DHT22;5197;48.152;8.590;2023-04-03T05:11:38;0.90;67.70
10304;DHT22;5197;48.152;8.590;2023-04-03T05:14:05;0.90;66.70
10304;DHT22;5197;48.152;8.590;2023-04-03T05:16:33;1.00;66.10
10304;DHT22;5197;48.152;8.590;2023-04-03T05:19:00;1.00;64.00
10304;DHT22;5197;48.152;8.590;2023-04-03T05:21:27;0.90;63.10
10304;DHT22;5197;48.152;8.590;2023-04-03T05:23:59;0.90;63.00
10304;DHT22;5197;48.152;8.590;2023-04-03T05:26:30;0.90;62.70
10304;DHT22;5197;48.152;8.590;2023-04-03T05:28:57;0.90;62.80
10304;DHT22;5197;48.152;8.590;2023-04-03T05:31:24;0.90;62.20
10304;DHT22;5197;48.152;8.590;2023-04-03T05:33:51;0.90;61.40
10304;DHT22;5197;48.152;8.590;2023-04-03T05:36:18;2.40;63.60
10304;DHT22;5197;48.152;8.590;2023-04-03T05:38:45;0.90;63.00
10304;DHT22;5197;48.152;8.590;2023-04-03T05:41:13;0.90;63.20
10304;DHT22;5197;48.152;8.590;2023-04-03T05:43:40;0.90;62.10
10304;DHT22;5197;48.152;8.590;2023-04-03T05:46:13;0.90;62.30
10304;DHT22;5197;48.152;8.590;2023-04-03T05:48:40;0.80;60.30
10304;DHT22;5197;48.152;8.590;2023-04-03T05:51:17;0.80;61.80
10304;DHT22;5197;48.152;8.590;2023-04-03T05:53:44;0.80;62.90
10304;DHT22;5197;48.152;8.590;2023-04-03T05:56:12;0.80;60.20
10304;DHT22;5197;48.152;8.590;2023-04-03T05:58:39;0.80;59.00
10304;DHT22;5197;48.152;8.590;2023-04-03T06:01:06;0.80;58.70
10304;DHT22;5197;48.152;8.590;2023-04-03T06:03:33;0.80;58.50
10304;DHT22;5197;48.152;8.590;2023-04-03T06:06:03;0.80;57.70
10304;DHT22;5197;48.152;8.590;2023-04-03T06:08:31;0.80;53.50
10304;DHT22;5197;48.152;8.590;2023-04-03T06:10:58;0.80;54.80
10304;DHT22;5197;48.152;8.590;2023-04-03T06:13:24;0.80;54.40
10304;DHT22;5197;48.152;8.590;2023-04-03T06:15:51;0.80;54.20
10304;DHT22;5197;48.152;8.590;2023-04-03T06:18:18;0.90;53.00
10304;DHT22;5197;48.152;8.590;2023-04-03T06:20:45;0.90;53.70
10304;DHT22;5197;48.152;8.590;2023-04-03T06:23:12;1.00;53.70
10304;DHT22;5197;48.152;8.590;2023-04-03T06:25:39;1.10;53.70
10304;DHT22;5197;48.152;8.590;2023-04-03T06:28:07;1.20;52.80
10304;DHT22;5197;48.152;8.590;2023-04-03T06:30:36;1.30;51.20
10304;DHT22;5197;48.152;8.590;2023-04-03T06:33:03;1.30;50.10
10304;DHT22;5197;48.152;8.590;2023-04-03T06:35:30;1.40;48.50
10304;DHT22;5197;48.152;8.590;2023-04-03T06:37:57;1.40;47.40
10304;DHT22;5197;48.152;8.590;2023-04-03T06:40:25;1.50;45.00
10304;DHT22;5197;48.152;8.590;2023-04-03T06:42:52;1.40;44.90
10304;DHT22;5197;48.152;8.590;2023-04-03T06:45:19;1.30;42.70
10304;DHT22;5197;48.152;8.590;2023-04-03T06:47:46;1.30;40.40
10304;DHT22;5197;48.152;8.590;2023-04-03T06:50:13;1.30;43.00
10304;DHT22;5197;48.152;8.590;2023-04-03T06:52:41;1.30;43.70
10304;DHT22;5197;48.152;8.590;2023-04-03T06:55:09;1.30;43.70
10304;DHT22;5197;48.152;8.590;2023-04-03T06:57:36;1.40;43.70
10304;DHT22;5197;48.152;8.590;2023-04-03T07:00:04;1.30;39.10
10304;DHT22;5197;48.152;8.590;2023-04-03T07:02:31;1.30;40.30
10304;DHT22;5197;48.152;8.590;2023-04-03T07:04:58;1.30;37.20
10304;DHT22;5197;48.152;8.590;2023-04-03T07:07:25;1.20;38.10
10304;DHT22;5197;48.152;8.590;2023-04-03T07:09:53;1.20;40.30
10304;DHT22;5197;48.152;8.590;2023-04-03T07:12:20;1.30;40.20
10304;DHT22;5197;48.152;8.590;2023-04-03T07:14:47;1.40;40.40
10304;DHT22;5197;48.152;8.590;2023-04-03T07:17:14;1.50;40.40
10304;DHT22;5197;48.152;8.590;2023-04-03T07:19:41;1.60;38.40
10304;DHT22;5197;48.152;8.590;2023-04-03T07:22:08;1.60;34.40
10304;DHT22;5197;48.152;8.590;2023-04-03T07:24:35;1.70;33.00
10304;DHT22;5197;48.152;8.590;2023-04-03T07:27:02;1.70;31.70
10304;DHT22;5197;48.152;8.590;2023-04-03T07:29:29;1.70;29.00
10304;DHT22;5197;48.152;8.590;2023-04-03T07:31:56;1.70;26.80
10304;DHT22;5197;48.152;8.590;2023-04-03T07:34:23;1.80;22.40
10304;DHT22;5197;48.152;8.590;2023-04-03T07:36:50;1.80;20.90
10304;DHT22;5197;48.152;8.590;2023-04-03T07:39:17;1.70;21.70
10304;DHT22;5197;48.152;8.590;2023-04-03T07:41:44;1.70;21.60
10304;DHT22;5197;48.152;8.590;2023-04-03T07:44:11;1.70;21.60
10304;DHT22;5197;48.152;8.590;2023-04-03T07:46:38;1.70;20.10
10304;DHT22;5197;48.152;8.590;2023-04-03T07:49:05;1.60;22.20
10304;DHT22;5197;48.152;8.590;2023-04-03T07:51:32;1.70;23.60
10304;DHT22;5197;48.152;8.590;2023-04-03T07:53:59;1.70;23.70
10304;DHT22;5197;48.152;8.590;2023-04-03T07:56:26;1.70;22.70
10304;DHT22;5197;48.152;8.590;2023-04-03T07:58:52;1.70;23.90
10304;DHT22;5197;48.152;8.590;2023-04-03T08:01:20;1.70;22.80
10304;DHT22;5197;48.152;8.590;2023-04-03T08:03:47;1.70;23.30
10304;DHT22;5197;48.152;8.590;2023-04-03T08:06:14;1.70;21.90
10304;DHT22;5197;48.152;8.590;2023-04-03T08:08:45;1.80;20.80
10304;DHT22;5197;48.152;8.590;2023-04-03T08:11:12;1.80;19.90
10304;DHT22;5197;48.152;8.590;2023-04-03T08:13:39;1.70;16.90
10304;DHT22;5197;48.152;8.590;2023-04-03T08:16:14;1.80;19.40
10304;DHT22;5197;48.152;8.590;2023-04-03T08:18:43;1.70;13.60
10304;DHT22;5197;48.152;8.590;2023-04-03T08:21:11;1.70;16.30
10304;DHT22;5197;48.152;8.590;2023-04-03T08:23:39;1.70;16.30
10304;DHT22;5197;48.152;8.590;2023-04-03T08:26:10;1.70;14.70
10304;DHT22;5197;48.152;8.590;2023-04-03T08:28:37;1.90;17.30
10304;DHT22;5197;48.152;8.590;2023-04-03T08:31:07;2.00;17.80
10304;DHT22;5197;48.152;8.590;2023-04-03T08:33:34;1.90;11.90
10304;DHT22;5197;48.152;8.590;2023-04-03T08:36:18;1.90;13.70
10304;DHT22;5197;48.152;8.590;2023-04-03T08:38:46;1.90;13.10
10304;DHT22;5197;48.152;8.590;2023-04-03T08:44:14;2.20;16.50
10304;DHT22;5197;48.152;8.590;2023-04-03T08:49:37;2.20;15.90
10304;DHT22;5197;48.152;8.590;2023-04-03T08:52:11;2.40;16.70
10304;DHT22;5197;48.152;8.590;2023-04-03T08:54:54;2.50;16.70
10304;DHT22;5197;48.152;8.590;2023-04-03T08:57:34;2.70;14.90
10304;DHT22;5197;48.152;8.590;2023-04-03T09:02:47;2.80;13.20
10304;DHT22;5197;48.152;8.590;2023-04-03T09:05:33;2.70;12.60
10304;DHT22;5197;48.152;8.590;2023-04-03T09:08:22;2.40;10.60
10304;DHT22;5197;48.152;8.590;2023-04-03T09:10:57;2.60;15.20
10304;DHT22;5197;48.152;8.590;2023-04-03T09:13:36;2.50;12.90
10304;DHT22;5197;48.152;8.590;2023-04-03T09:16:25;2.40;13.20
10304;DHT22;5197;48.152;8.590;2023-04-03T09:19:06;2.40;14.50
10304;DHT22;5197;48.152;8.590;2023-04-03T09:21:38;2.40;16.80
10304;DHT22;5197;48.152;8.590;2023-04-03T09:24:11;2.50;16.70
10304;DHT22;5197;48.152;8.590;2023-04-03T09:29:26;2.70;16.90
10304;DHT22;5197;48.152;8.590;2023-04-03T09:31:57;2.70;15.20
10304;DHT22;5197;48.152;8.590;2023-04-03T09:34:30;2.70;15.50
10304;DHT22;5197;48.152;8.590;2023-04-03T09:36:59;2.50;15.40
10304;DHT22;5197;48.152;8.590;2023-04-03T09:39:48;2.60;16.80
10304;DHT22;5197;48.152;8.590;2023-04-03T09:42:38;2.80;16.90
10304;DHT22;5197;48.152;8.590;2023-04-03T09:45:23;2.90;13.40
10304;DHT22;5197;48.152;8.590;2023-04-03T09:53:41;2.90;17.00
10304;DHT22;5197;48.152;8.590;2023-04-03T09:58:46;3.10;17.10
10304;DHT22;5197;48.152;8.590;2023-04-03T10:01:35;3.30;16.40
10304;DHT22;5197;48.152;8.590;2023-04-03T10:04:12;3.30;11.70
10304;DHT22;5197;48.152;8.590;2023-04-03T10:06:41;3.20;11.10
10304;DHT22;5197;48.152;8.590;2023-04-03T10:09:26;3.20;15.20
10304;DHT22;5197;48.152;8.590;2023-04-03T10:12:03;3.30;15.20
10304;DHT22;5197;48.152;8.590;2023-04-03T10:14:39;3.40;14.70
10304;DHT22;5197;48.152;8.590;2023-04-03T10:17:31;3.20;10.40
10304;DHT22;5197;48.152;8.590;2023-04-03T10:25:47;3.00;15.30
10304;DHT22;5197;48.152;8.590;2023-04-03T10:31:13;3.40;15.20
10304;DHT22;5197;48.152;8.590;2023-04-03T10:42:18;3.40;9.90
10304;DHT22;5197;48.152;8.590;2023-04-03T10:57:02;3.50;12.80
10304;DHT22;5197;48.152;8.590;2023-04-03T11:05:01;3.60;12.20
10304;DHT22;5197;48.152;8.590;2023-04-03T11:07:33;3.60;12.40
10304;DHT22;5197;48.152;8.590;2023-04-03T11:10:09;3.50;11.40
10304;DHT22;5197;48.152;8.590;2023-04-03T11:12:48;3.40;10.70
10304;DHT22;5197;48.152;8.590;2023-04-03T11:15:20;3.40;11.30
10304;DHT22;5197;48.152;8.590;2023-04-03T11:18:04;3.30;12.70
10304;DHT22;5197;48.152;8.590;2023-04-03T11:20:36;3.50;13.20
10304;DHT22;5197;48.152;8.590;2023-04-03T11:23:26;3.50;12.30
10304;DHT22;5197;48.152;8.590;2023-04-03T11:26:19;3.60;10.90
10304;DHT22;5197;48.152;8.590;2023-04-03T11:28:52;3.80;9.30
10304;DHT22;5197;48.152;8.590;2023-04-03T11:31:45;3.80;9.50
10304;DHT22;5197;48.152;8.590;2023-04-03T11:34:26;4.00;8.20
10304;DHT22;5197;48.152;8.590;2023-04-03T11:36:58;4.20;9.30
10304;DHT22;5197;48.152;8.590;2023-04-03T11:39:31;4.40;9.70
10304;DHT22;5197;48.152;8.590;2023-04-03T11:42:37;4.30;4.70
10304;DHT22;5197;48.152;8.590;2023-04-03T11:47:56;4.40;6.50
10304;DHT22;5197;48.152;8.590;2023-04-03T11:58:19;4.40;5.40
10304;DHT22;5197;48.152;8.590;2023-04-03T12:01:11;4.20;6.40
10304;DHT22;5197;48.152;8.590;2023-04-03T12:29:38;4.40;6.30
10304;DHT22;5197;48.152;8.590;2023-04-03T12:35:47;4.50;6.00
10304;DHT22;5197;48.152;8.590;2023-04-03T12:41:28;4.30;3.10
10304;DHT22;5197;48.152;8.590;2023-04-03T12:44:26;4.10;3.70
10304;DHT22;5197;48.152;8.590;2023-04-03T12:47:00;4.00;5.70
10304;DHT22;5197;48.152;8.590;2023-04-03T12:49:41;3.80;1.60
10304;DHT22;5197;48.152;8.590;2023-04-03T12:52:44;3.90;3.10
10304;DHT22;5197;48.152;8.590;2023-04-03T12:55:17;3.80;2.80
10304;DHT22;5197;48.152;8.590;2023-04-03T12:57:44;3.60;4.00
10304;DHT22;5197;48.152;8.590;2023-04-03T13:02:47;3.80;6.10
10304;DHT22;5197;48.152;8.590;2023-04-03T13:05:17;3.80;4.90
10304;DHT22;5197;48.152;8.590;2023-04-03T13:07:49;3.90;5.70
10304;DHT22;5197;48.152;8.590;2023-04-03T13:10:19;3.90;4.80
10304;DHT22;5197;48.152;8.590;2023-04-03T13:12:55;3.90;3.90
10304;DHT22;5197;48.152;8.590;2023-04-03T13:18:41;4.00;4.60
10304;DHT22;5197;48.152;8.590;2023-04-03T13:21:15;4.10;5.20
10304;DHT22;5197;48.152;8.590;2023-04-03T13:23:47;4.20;3.70
10304;DHT22;5197;48.152;8.590;2023-04-03T13:26:18;4.30;3.40
10304;DHT22;5197;48.152;8.590;2023-04-03T13:28:47;4.20;2.40
10304;DHT22;5197;48.152;8.590;2023-04-03T13:33:54;4.10;1.00
10304;DHT22;5197;48.152;8.590;2023-04-03T13:36:32;4.20;2.10
10304;DHT22;5197;48.152;8.590;2023-04-03T13:39:02;4.30;2.80
10304;DHT22;5197;48.152;8.590;2023-04-03T13:41:41;4.30;1.40
10304;DHT22;5197;48.152;8.590;2023-04-03T13:46:51;4.10;3.00
10304;DHT22;5197;48.152;8.590;2023-04-03T13:49:32;4.00;1.00
10304;DHT22;5197;48.152;8.590;2023-04-03T13:52:00;4.00;1.70
10304;DHT22;5197;48.152;8.590;2023-04-03T13:54:38;4.10;2.80
10304;DHT22;5197;48.152;8.590;2023-04-03T13:57:14;4.30;2.00
10304;DHT22;5197;48.152;8.590;2023-04-03T13:59:43;4.30;1.00
10304;DHT22;5197;48.152;8.590;2023-04-03T14:02:28;4.30;1.50
10304;DHT22;5197;48.152;8.590;2023-04-03T14:04:58;4.40;1.80
10304;DHT22;5197;48.152;8.590;2023-04-03T14:07:29;4.50;1.00
10304;DHT22;5197;48.152;8.590;2023-04-03T14:09:57;4.30;1.00
10304;DHT22;5197;48.152;8.590;2023-04-03T14:12:32;4.10;1.00
10304;DHT22;5197;48.152;8.590;2023-04-03T14:15:06;4.10;1.00
10304;DHT22;5197;48.152;8.590;2023-04-03T14:17:38;4.30;1.30
10304;DHT22;5197;48.152;8.590;2023-04-03T14:20:06;4.10;1.00
10304;DHT22;5197;48.152;8.590;2023-04-03T14:22:33;4.20;1.10
10304;DHT22;5197;48.152;8.590;2023-04-03T14:25:01;4.20;1.00
10304;DHT22;5197;48.152;8.590;2023-04-03T14:27:34;5.30;1.00
10304;DHT22;5197;48.152;8.590;2023-04-03T14:30:02;4.10;1.00
10304;DHT22;5197;48.152;8.590;2023-04-03T14:32:30;4.00;1.00
10304;DHT22;5197;48.152;8.590;2023-04-03T14:34:57;3.90;1.00
10304;DHT22;5197;48.152;8.590;2023-04-03T14:37:28;3.90;1.00
10304;DHT22;5197;48.152;8.590;2023-04-03T14:39:57;4.10;1.00
10304;DHT22;5197;48.152;8.590;2023-04-03T14:42:27;4.10;1.00
10304;DHT22;5197;48.152;8.590;2023-04-03T14:44:55;4.20;1.00
10304;DHT22;5197;48.152;8.590;2023-04-03T14:47:27;4.20;1.00
10304;DHT22;5197;48.152;8.590;2023-04-03T14:49:59;4.30;1.00
10304;DHT22;5197;48.152;8.590;2023-04-03T14:52:30;4.40;1.00
10304;DHT22;5197;48.152;8.590;2023-04-03T14:54:58;4.50;1.00
10304;DHT22;5197;48.152;8.590;2023-04-03T14:57:26;4.30;1.00
10304;DHT22;5197;48.152;8.590;2023-04-03T14:59:53;4.20;1.00
10304;DHT22;5197;48.152;8.590;2023-04-03T15:02:27;4.20;1.00
10304;DHT22;5197;48.152;8.590;2023-04-03T15:04:56;4.20;1.00
10304;DHT22;5197;48.152;8.590;2023-04-03T15:07:25;4.30;1.00
10304;DHT22;5197;48.152;8.590;2023-04-03T15:09:53;4.20;1.00
10304;DHT22;5197;48.152;8.590;2023-04-03T15:12:19;4.10;1.00
10304;DHT22;5197;48.152;8.590;2023-04-03T15:14:46;4.10;1.00
10304;DHT22;5197;48.152;8.590;2023-04-03T15:17:25;4.10;1.00
10304;DHT22;5197;48.152;8.590;2023-04-03T15:19:52;4.20;1.00
10304;DHT22;5197;48.152;8.590;2023-04-03T15:22:19;4.20;1.00
10304;DHT22;5197;48.152;8.590;2023-04-03T15:24:46;4.00;1.00
10304;DHT22;5197;48.152;8.590;2023-04-03T15:27:14;3.90;1.00
10304;DHT22;5197;48.152;8.590;2023-04-03T15:29:42;3.80;1.00
10304;DHT22;5197;48.152;8.590;2023-04-03T15:32:10;3.70;1.00
10304;DHT22;5197;48.152;8.590;2023-04-03T15:34:38;3.60;1.00
10304;DHT22;5197;48.152;8.590;2023-04-03T15:37:05;3.60;1.00
10304;DHT22;5197;48.152;8.590;2023-04-03T15:39:32;3.50;1.00
10304;DHT22;5197;48.152;8.590;2023-04-03T15:41:58;3.50;1.00
10304;DHT22;5197;48.152;8.590;2023-04-03T15:44:34;3.50;1.00
10304;DHT22;5197;48.152;8.590;2023-04-03T15:47:02;3.50;1.00
10304;DHT22;5197;48.152;8.590;2023-04-03T15:49:29;3.50;1.00
10304;DHT22;5197;48.152;8.590;2023-04-03T15:51:56;3.60;1.00
10304;DHT22;5197;48.152;8.590;2023-04-03T15:54:23;3.50;1.00
10304;DHT22;5197;48.152;8.590;2023-04-03T15:56:52;3.50;1.00
10304;DHT22;5197;48.152;8.590;2023-04-03T15:59:19;3.50;1.00
10304;DHT22;5197;48.152;8.590;2023-04-03T16:01:46;3.50;1.00
10304;DHT22;5197;48.152;8.590;2023-04-03T16:04:14;3.50;1.00
10304;DHT22;5197;48.152;8.590;2023-04-03T16:06:43;3.40;1.00
10304;DHT22;5197;48.152;8.590;2023-04-03T16:09:10;3.40;1.00
10304;DHT22;5197;48.152;8.590;2023-04-03T16:11:37;3.40;1.00
10304;DHT22;5197;48.152;8.590;2023-04-03T16:14:07;3.60;1.00
10304;DHT22;5197;48.152;8.590;2023-04-03T16:16:35;4.40;1.00
10304;DHT22;5197;48.152;8.590;2023-04-03T16:19:02;3.80;1.00
10304;DHT22;5197;48.152;8.590;2023-04-03T16:21:30;3.80;1.00
10304;DHT22;5197;48.152;8.590;2023-04-03T16:23:58;3.80;1.00
10304;DHT22;5197;48.152;8.590;2023-04-03T16:26:25;3.90;1.00
10304;DHT22;5197;48.152;8.590;2023-04-03T16:28:53;4.00;1.00
10304;DHT22;5197;48.152;8.590;2023-04-03T16:31:21;3.80;1.00
10304;DHT22;5197;48.152;8.590;2023-04-03T16:33:48;3.60;1.00
10304;DHT22;5197;48.152;8.590;2023-04-03T16:36:15;3.60;1.00
10304;DHT22;5197;48.152;8.590;2023-04-03T16:38:42;3.60;1.00
10304;DHT22;5197;48.152;8.590;2023-04-03T16:41:09;3.70;1.00
10304;DHT22;5197;48.152;8.590;2023-04-03T16:43:36;3.70;1.00
10304;DHT22;5197;48.152;8.590;2023-04-03T16:46:03;3.60;1.00
10304;DHT22;5197;48.152;8.590;2023-04-03T16:48:31;3.60;1.00
10304;DHT22;5197;48.152;8.590;2023-04-03T16:50:58;3.60;1.00
10304;DHT22;5197;48.152;8.590;2023-04-03T16:53:25;3.40;1.00
10304;DHT22;5197;48.152;8.590;2023-04-03T16:55:53;3.50;1.00
10304;DHT22;5197;48.152;8.590;2023-04-03T16:58:19;3.40;1.00
10304;DHT22;5197;48.152;8.590;2023-04-03T17:00:49;3.30;1.00
10304;DHT22;5197;48.152;8.590;2023-04-03T17:03:16;3.30;1.00
10304;DHT22;5197;48.152;8.590;2023-04-03T17:05:47;3.20;1.00
10304;DHT22;5197;48.152;8.590;2023-04-03T17:08:14;3.10;1.00
10304;DHT22;5197;48.152;8.590;2023-04-03T17:10:41;3.10;1.00
10304;DHT22;5197;48.152;8.590;2023-04-03T17:13:07;3.10;1.00
10304;DHT22;5197;48.152;8.590;2023-04-03T17:15:34;3.10;1.00
10304;DHT22;5197;48.152;8.590;2023-04-03T17:18:01;3.10;1.00
10304;DHT22;5197;48.152;8.590;2023-04-03T17:20:29;3.20;1.00
10304;DHT22;5197;48.152;8.590;2023-04-03T17:22:56;3.20;1.00
10304;DHT22;5197;48.152;8.590;2023-04-03T17:25:23;3.30;1.00
10304;DHT22;5197;48.152;8.590;2023-04-03T17:27:50;3.30;1.00
10304;DHT22;5197;48.152;8.590;2023-04-03T17:30:17;3.30;1.00
10304;DHT22;5197;48.152;8.590;2023-04-03T17:32:44;3.40;1.00
10304;DHT22;5197;48.152;8.590;2023-04-03T17:35:11;3.40;1.00
10304;DHT22;5197;48.152;8.590;2023-04-03T17:37:38;3.40;1.00
10304;DHT22;5197;48.152;8.590;2023-04-03T17:40:06;3.50;1.00
10304;DHT22;5197;48.152;8.590;2023-04-03T17:42:33;3.50;1.00
10304;DHT22;5197;48.152;8.590;2023-04-03T17:45:00;3.70;1.00
10304;DHT22;5197;48.152;8.590;2023-04-03T17:47:27;3.50;1.00
10304;DHT22;5197;48.152;8.590;2023-04-03T17:49:53;3.50;1.00
10304;DHT22;5197;48.152;8.590;2023-04-03T17:52:20;3.40;1.00
10304;DHT22;5197;48.152;8.590;2023-04-03T17:54:51;3.20;1.00
10304;DHT22;5197;48.152;8.590;2023-04-03T17:57:17;3.20;1.00
10304;DHT22;5197;48.152;8.590;2023-04-03T17:59:45;3.30;1.00
10304;DHT22;5197;48.152;8.590;2023-04-03T18:02:12;3.30;1.00
10304;DHT22;5197;48.152;8.590;2023-04-03T18:04:38;3.30;1.00
10304;DHT22;5197;48.152;8.590;2023-04-03T18:07:05;3.20;1.00
10304;DHT22;5197;48.152;8.590;2023-04-03T18:09:35;3.20;1.00
10304;DHT22;5197;48.152;8.590;2023-04-03T18:12:04;3.10;1.00
10304;DHT22;5197;48.152;8.590;2023-04-03T18:14:33;3.00;1.00
10304;DHT22;5197;48.152;8.590;2023-04-03T18:17:01;3.00;1.00
10304;DHT22;5197;48.152;8.590;2023-04-03T18:19:29;2.90;1.00
10304;DHT22;5197;48.152;8.590;2023-04-03T18:22:01;2.90;1.00